Observation data for Tulia on 06/17/2019      Previous  Date  Next       Current Mesonet Observations  Soil Data  Daily Summary Page  Observations in Plain Language
KTIS 170500Z 08005KT 16/13 A3002 RMK A01 T01550128  RH  088%=      5-min Rain = 0
KTIS 170505Z 08005KT 15/13 A3002 RMK A01 T01540127  RH  087%=      5-min Rain = 0
KTIS 170510Z 08005KT 15/13 A3002 RMK A01 T01530127  RH  087%=      5-min Rain = 0
KTIS 170515Z 08005KT 15/13 A3002 RMK A01 T01540128  RH  088%=      5-min Rain = 0
KTIS 170520Z 08005KT 16/13 A3002 RMK A01 T01550128  RH  087%=      5-min Rain = 0
KTIS 170525Z 08005KT 16/13 A3002 RMK A01 T01560129  RH  087%=      5-min Rain = 0
KTIS 170530Z 09004KT 16/13 A3002 RMK A01 T01560129  RH  087%=      5-min Rain = 0
KTIS 170535Z 09004KT 16/13 A3002 RMK A01 T01560129  RH  087%=      5-min Rain = 0
KTIS 170540Z 08004KT 16/13 A3002 RMK A01 T01580129  RH  086%=      5-min Rain = 0
KTIS 170545Z 08005KT 16/13 A3002 RMK A01 T01580127  RH  085%=      5-min Rain = 0
KTIS 170550Z 08005KT 16/13 A3002 RMK A01 T01550125  RH  086%=      5-min Rain = 0
KTIS 170555Z 08003KT 15/13 A3002 RMK A01 T01540126  RH  087%=      5-min Rain = 0
KTIS 170600Z 08003KT 16/13 A3002 RMK A01 T01550129  RH  088%=      5-min Rain = 0
KTIS 170605Z 08003KT 15/13 A3002 RMK A01 T01540126  RH  087%=      5-min Rain = 0
KTIS 170610Z 08003KT 15/12 A3002 RMK A01 T01520124  RH  087%=      5-min Rain = 0
KTIS 170615Z 08002KT 15/12 A3002 RMK A01 T01500123  RH  088%=      5-min Rain = 0
KTIS 170620Z 08000KT 15/12 A3002 RMK A01 T01470123  RH  089%=      5-min Rain = 0
KTIS 170625Z 09000KT 15/12 A3002 RMK A01 T01450123  RH  090%=      5-min Rain = 0
KTIS 170630Z 00000KT 14/12 A3002 RMK A01 T01440123  RH  090%=      5-min Rain = 0
KTIS 170635Z 09000KT 15/13 A3002 RMK A01 T01450125  RH  091%=      5-min Rain = 0
KTIS 170640Z 00000KT 15/13 A3003 RMK A01 T01450125  RH  091%=      5-min Rain = 0
KTIS 170645Z 00000KT 14/12 A3003 RMK A01 T01430123  RH  091%=      5-min Rain = 0
KTIS 170650Z 09000KT 14/12 A3002 RMK A01 T01440123  RH  091%=      5-min Rain = 0
KTIS 170655Z 09001KT 14/12 A3002 RMK A01 T01440123  RH  091%=      5-min Rain = 0
KTIS 170700Z 09001KT 14/12 A3002 RMK A01 T01430122  RH  090%=      5-min Rain = 0
KTIS 170705Z 09001KT 14/12 A3002 RMK A01 T01430122  RH  091%=      5-min Rain = 0
KTIS 170710Z 09000KT 14/12 A3002 RMK A01 T01440124  RH  091%=      5-min Rain = 0
KTIS 170715Z 09000KT 14/12 A3002 RMK A01 T01430121  RH  091%=      5-min Rain = 0
KTIS 170720Z 09000KT 14/12 A3002 RMK A01 T01350115  RH  091%=      5-min Rain = 0
KTIS 170725Z 09000KT 13/11 A3002 RMK A01 T01320113  RH  092%=      5-min Rain = 0
KTIS 170730Z 09002KT 13/12 A3002 RMK A01 T01330116  RH  093%=      5-min Rain = 0
KTIS 170735Z 09002KT 13/12 A3002 RMK A01 T01340118  RH  093%=      5-min Rain = 0
KTIS 170740Z 09002KT 14/12 A3001 RMK A01 T01360120  RH  094%=      5-min Rain = 0
KTIS 170745Z 09000KT 14/12 A3001 RMK A01 T01360120  RH  094%=      5-min Rain = 0
KTIS 170750Z 09001KT 14/12 A3001 RMK A01 T01370122  RH  094%=      5-min Rain = 0
KTIS 170755Z 09001KT 14/13 A3001 RMK A01 T01410127  RH  094%=      5-min Rain = 0
KTIS 170800Z 09001KT 14/13 A3002 RMK A01 T01440129  RH  094%=      5-min Rain = 0
KTIS 170805Z 09001KT 14/12 A3001 RMK A01 T01410124  RH  093%=      5-min Rain = 0
KTIS 170810Z 09000KT 14/12 A3001 RMK A01 T01380119  RH  092%=      5-min Rain = 0
KTIS 170815Z 01002KT 13/11 A3001 RMK A01 T01300110  RH  091%=      5-min Rain = 0
KTIS 170820Z 01002KT 13/11 A3001 RMK A01 T01300112  RH  092%=      5-min Rain = 0
KTIS 170825Z 01000KT 13/11 A3001 RMK A01 T01290113  RH  093%=      5-min Rain = 0
KTIS 170830Z 00001KT 13/11 A3002 RMK A01 T01280111  RH  093%=      5-min Rain = 0
KTIS 170835Z 01002KT 13/11 A3001 RMK A01 T01270111  RH  093%=      5-min Rain = 0
KTIS 170840Z 02003KT 13/11 A3001 RMK A01 T01250109  RH  093%=      5-min Rain = 0
KTIS 170845Z 02003KT 12/11 A3001 RMK A01 T01240109  RH  094%=      5-min Rain = 0
KTIS 170850Z 02001KT 13/11 A3002 RMK A01 T01250110  RH  094%=      5-min Rain = 0
KTIS 170855Z 02001KT 13/11 A3001 RMK A01 T01270112  RH  094%=      5-min Rain = 0
KTIS 170900Z 04003KT 13/12 A3001 RMK A01 T01300116  RH  095%=      5-min Rain = 0
KTIS 170905Z 04002KT 13/12 A3001 RMK A01 T01300116  RH  094%=      5-min Rain = 0
KTIS 170910Z 04004KT 13/11 A3001 RMK A01 T01280113  RH  094%=      5-min Rain = 0
KTIS 170915Z 03004KT 13/11 A3001 RMK A01 T01250110  RH  094%=      5-min Rain = 0
KTIS 170920Z 01003KT 12/11 A3001 RMK A01 T01230109  RH  094%=      5-min Rain = 0
KTIS 170925Z 02003KT 12/11 A3001 RMK A01 T01240110  RH  094%=      5-min Rain = 0
KTIS 170930Z 01004KT 12/11 A3001 RMK A01 T01210107  RH  094%=      5-min Rain = 0
KTIS 170935Z 00004KT 12/11 A3001 RMK A01 T01210108  RH  095%=      5-min Rain = 0
KTIS 170940Z 01003KT 12/11 A3001 RMK A01 T01220109  RH  095%=      5-min Rain = 0
KTIS 170945Z 01003KT 12/11 A3001 RMK A01 T01230111  RH  095%=      5-min Rain = 0
KTIS 170950Z 03005KT 12/11 A3001 RMK A01 T01230111  RH  096%=      5-min Rain = 0
KTIS 170955Z 04005KT 13/12 A3001 RMK A01 T01280116  RH  096%=      5-min Rain = 0
KTIS 171000Z 04003KT 13/12 A3001 RMK A01 T01300118  RH  096%=      5-min Rain = 0
KTIS 171005Z 04001KT 13/12 A3002 RMK A01 T01330121  RH  096%=      5-min Rain = 0
KTIS 171010Z 04001KT 13/11 A3002 RMK A01 T01270114  RH  095%=      5-min Rain = 0
KTIS 171015Z 04003KT 12/11 A3002 RMK A01 T01240111  RH  095%=      5-min Rain = 0
KTIS 171020Z 04003KT 12/11 A3002 RMK A01 T01220109  RH  095%=      5-min Rain = 0
KTIS 171025Z 04001KT 12/11 A3002 RMK A01 T01200107  RH  095%=      5-min Rain = 0
KTIS 171030Z 04000KT 12/11 A3002 RMK A01 T01220111  RH  096%=      5-min Rain = 0
KTIS 171035Z 35001KT 12/11 A3002 RMK A01 T01240113  RH  096%=      5-min Rain = 0
KTIS 171040Z 32003KT 13/12 A3003 RMK A01 T01260115  RH  096%=      5-min Rain = 0
KTIS 171045Z 31003KT 13/12 A3003 RMK A01 T01280117  RH  096%=      5-min Rain = 0
KTIS 171050Z 31003KT 13/12 A3003 RMK A01 T01300119  RH  097%=      5-min Rain = 0
KTIS 171055Z 28004KT 13/12 A3003 RMK A01 T01310121  RH  097%=      5-min Rain = 0
KTIS 171100Z 25006KT 13/12 A3004 RMK A01 T01340123  RH  097%=      5-min Rain = 0
KTIS 171105Z 25006KT 13/12 A3004 RMK A01 T01340123  RH  097%=      5-min Rain = 0
KTIS 171110Z 25004KT 13/12 A3004 RMK A01 T01340124  RH  097%=      5-min Rain = 0
KTIS 171115Z 25002KT 14/12 A3004 RMK A01 T01350124  RH  097%=      5-min Rain = 0
KTIS 171120Z 25003KT 13/12 A3004 RMK A01 T01340123  RH  097%=      5-min Rain = 0
KTIS 171125Z 25004KT 13/12 A3004 RMK A01 T01300119  RH  097%=      5-min Rain = 0
KTIS 171130Z 25004KT 13/12 A3004 RMK A01 T01300119  RH  097%=      5-min Rain = 0
KTIS 171135Z 25002KT 13/12 A3004 RMK A01 T01310120  RH  097%=      5-min Rain = 0
KTIS 171140Z 25003KT 13/12 A3004 RMK A01 T01310121  RH  097%=      5-min Rain = 0
KTIS 171145Z 25004KT 13/12 A3004 RMK A01 T01270116  RH  096%=      5-min Rain = 0
KTIS 171150Z 25005KT 13/12 A3005 RMK A01 T01300120  RH  097%=      5-min Rain = 0
KTIS 171155Z 24005KT 14/13 A3005 RMK A01 T01350125  RH  097%=      5-min Rain = 0
KTIS 171200Z 24005KT 14/13 A3005 RMK A01 T01380128  RH  097%=      5-min Rain = 0
KTIS 171205Z 23005KT 14/13 A3005 RMK A01 T01410131  RH  097%=      5-min Rain = 0
KTIS 171210Z 22004KT 14/13 A3005 RMK A01 T01440134  RH  097%=      5-min Rain = 0
KTIS 171215Z 22005KT 15/14 A3005 RMK A01 T01470136  RH  097%=      5-min Rain = 0
KTIS 171220Z 22006KT 15/14 A3005 RMK A01 T01490138  RH  097%=      5-min Rain = 0
KTIS 171225Z 22006KT 15/14 A3005 RMK A01 T01510139  RH  096%=      5-min Rain = 0
KTIS 171230Z 24006KT 15/14 A3005 RMK A01 T01520139  RH  096%=      5-min Rain = 0
KTIS 171235Z 24004KT 16/14 A3005 RMK A01 T01550141  RH  095%=      5-min Rain = 0
KTIS 171240Z 23003KT 16/14 A3005 RMK A01 T01560141  RH  095%=      5-min Rain = 0
KTIS 171245Z 22003KT 16/14 A3005 RMK A01 T01600143  RH  094%=      5-min Rain = 0
KTIS 171250Z 21004KT 16/15 A3005 RMK A01 T01630145  RH  093%=      5-min Rain = 0
KTIS 171255Z 20004KT 17/14 A3005 RMK A01 T01660144  RH  091%=      5-min Rain = 0
KTIS 171300Z 21004KT 17/15 A3005 RMK A01 T01690145  RH  089%=      5-min Rain = 0
KTIS 171305Z 20004KT 17/15 A3005 RMK A01 T01720146  RH  088%=      5-min Rain = 0
KTIS 171310Z 19004KT 17/15 A3005 RMK A01 T01730145  RH  087%=      5-min Rain = 0
KTIS 171315Z 20004KT 18/15 A3005 RMK A01 T01780149  RH  087%=      5-min Rain = 0
KTIS 171320Z 19005KT 18/15 A3005 RMK A01 T01800148  RH  085%=      5-min Rain = 0
KTIS 171325Z 19004KT 18/15 A3005 RMK A01 T01830150  RH  085%=      5-min Rain = 0
KTIS 171330Z 19005KT 19/15 A3005 RMK A01 T01860152  RH  084%=      5-min Rain = 0
KTIS 171335Z 20005KT 19/15 A3005 RMK A01 T01900152  RH  082%=      5-min Rain = 0
KTIS 171340Z 19007KT 19/15 A3005 RMK A01 T01930149  RH  079%=      5-min Rain = 0
KTIS 171345Z 19007KT 20/15 A3005 RMK A01 T01950149  RH  078%=      5-min Rain = 0
KTIS 171350Z 17007KT 20/15 A3005 RMK A01 T01970148  RH  077%=      5-min Rain = 0
KTIS 171355Z 18007KT 20/15 A3005 RMK A01 T01980147  RH  076%=      5-min Rain = 0
KTIS 171400Z 16006KT 20/15 A3005 RMK A01 T02000148  RH  075%=      5-min Rain = 0
KTIS 171405Z 16007KT 20/15 A3005 RMK A01 T02040146  RH  073%=      5-min Rain = 0
KTIS 171410Z 14007KT 21/15 A3005 RMK A01 T02070146  RH  071%=      5-min Rain = 0
KTIS 171415Z 15006KT 21/14 A3006 RMK A01 T02090144  RH  069%=      5-min Rain = 0
KTIS 171420Z 15007KT 21/14 A3006 RMK A01 T02120144  RH  068%=      5-min Rain = 0
KTIS 171425Z 16006KT 21/15 A3006 RMK A01 T02120146  RH  069%=      5-min Rain = 0
KTIS 171430Z 15006KT 22/15 A3006 RMK A01 T02150147  RH  068%=      5-min Rain = 0
KTIS 171435Z 15006KT 22/14 A3006 RMK A01 T02170142  RH  065%=      5-min Rain = 0
KTIS 171440Z 16006KT 22/14 A3007 RMK A01 T02180141  RH  064%=      5-min Rain = 0
KTIS 171445Z 18006KT 22/14 A3007 RMK A01 T02190142  RH  064%=      5-min Rain = 0
KTIS 171450Z 16005KT 22/15 A3007 RMK A01 T02230146  RH  065%=      5-min Rain = 0
KTIS 171455Z 15006KT 23/14 A3007 RMK A01 T02260141  RH  061%=      5-min Rain = 0
KTIS 171500Z 16005KT 23/14 A3007 RMK A01 T02260142  RH  062%=      5-min Rain = 0
KTIS 171505Z 14005KT 23/14 A3007 RMK A01 T02260139  RH  060%=      5-min Rain = 0
KTIS 171510Z 17005G11KT 23/13 A3007 RMK A01 T02290134  RH  057%=      5-min Rain = 0
KTIS 171515Z 17004KT 23/14 A3007 RMK A01 T02310139  RH  059%=      5-min Rain = 0
KTIS 171520Z 13006KT 23/14 A3007 RMK A01 T02340136  RH  056%=      5-min Rain = 0
KTIS 171525Z 14004KT 24/14 A3008 RMK A01 T02350137  RH  056%=      5-min Rain = 0
KTIS 171530Z 12005KT 24/13 A3008 RMK A01 T02380133  RH  054%=      5-min Rain = 0
KTIS 171535Z 16004KT 24/13 A3008 RMK A01 T02360131  RH  054%=      5-min Rain = 0
KTIS 171540Z 18003KT 24/13 A3008 RMK A01 T02370129  RH  053%=      5-min Rain = 0
KTIS 171545Z 18005KT 24/13 A3008 RMK A01 T02390129  RH  052%=      5-min Rain = 0
KTIS 171550Z 18005KT 24/13 A3008 RMK A01 T02390128  RH  052%=      5-min Rain = 0
KTIS 171555Z 18004G9KT 24/13 A3008 RMK A01 T02420126  RH  050%=      5-min Rain = 0
KTIS 171600Z 22003KT 24/12 A3008 RMK A01 T02420124  RH  049%=      5-min Rain = 0
KTIS 171605Z 19003KT 25/13 A3008 RMK A01 T02450127  RH  050%=      5-min Rain = 0
KTIS 171610Z 21004KT 25/13 A3008 RMK A01 T02450125  RH  049%=      5-min Rain = 0
KTIS 171615Z 23003KT 24/12 A3008 RMK A01 T02420124  RH  049%=      5-min Rain = 0
KTIS 171620Z 22002KT 24/12 A3008 RMK A01 T02440124  RH  049%=      5-min Rain = 0
KTIS 171625Z 22005KT 25/12 A3008 RMK A01 T02460122  RH  048%=      5-min Rain = 0
KTIS 171630Z 19002KT 25/12 A3009 RMK A01 T02510123  RH  047%=      5-min Rain = 0
KTIS 171635Z 14003KT 25/13 A3008 RMK A01 T02510125  RH  047%=      5-min Rain = 0
KTIS 171640Z 14004KT 25/13 A3008 RMK A01 T02510128  RH  048%=      5-min Rain = 0
KTIS 171645Z 16005KT 25/13 A3008 RMK A01 T02540127  RH  047%=      5-min Rain = 0
KTIS 171650Z 20006KT 25/12 A3008 RMK A01 T02540120  RH  045%=      5-min Rain = 0
KTIS 171655Z 24002G7KT 26/12 A3008 RMK A01 T02550122  RH  045%=      5-min Rain = 0
KTIS 171700Z 23004KT 26/13 A3008 RMK A01 T02560126  RH  046%=      5-min Rain = 0
KTIS 171705Z 21003G8KT 26/13 A3008 RMK A01 T02590125  RH  045%=      5-min Rain = 0
KTIS 171710Z 17004G9KT 26/12 A3008 RMK A01 T02620123  RH  044%=      5-min Rain = 0
KTIS 171715Z 16004KT 26/12 A3008 RMK A01 T02630120  RH  043%=      5-min Rain = 0
KTIS 171720Z 19007KT 27/13 A3008 RMK A01 T02660129  RH  045%=      5-min Rain = 0
KTIS 171725Z 19005G10KT 26/13 A3008 RMK A01 T02640127  RH  044%=      5-min Rain = 0
KTIS 171730Z 16004KT 27/13 A3008 RMK A01 T02650128  RH  044%=      5-min Rain = 0
KTIS 171735Z 17005G10KT 26/12 A3008 RMK A01 T02630123  RH  043%=      5-min Rain = 0
KTIS 171740Z 15005KT 26/12 A3008 RMK A01 T02630121  RH  043%=      5-min Rain = 0
KTIS 171745Z 12008G13KT 27/12 A3007 RMK A01 T02670122  RH  042%=      5-min Rain = 0
KTIS 171750Z 15007KT 27/12 A3007 RMK A01 T02690120  RH  041%=      5-min Rain = 0
KTIS 171755Z 11007KT 27/12 A3007 RMK A01 T02700117  RH  040%=      5-min Rain = 0
KTIS 171800Z 12007KT 27/11 A3007 RMK A01 T02690112  RH  039%=      5-min Rain = 0
KTIS 171805Z 16006KT 27/11 A3008 RMK A01 T02700109  RH  038%=      5-min Rain = 0
KTIS 171810Z 18005KT 27/11 A3008 RMK A01 T02680107  RH  038%=      5-min Rain = 0
KTIS 171815Z 18006G12KT 27/11 A3007 RMK A01 T02700106  RH  037%=      5-min Rain = 0
KTIS 171820Z 19005KT 27/10 A3007 RMK A01 T02690100  RH  036%=      5-min Rain = 0
KTIS 171825Z 23003KT 27/10 A3007 RMK A01 T02710100  RH  035%=      5-min Rain = 0
KTIS 171830Z 17005KT 28/11 A3006 RMK A01 T02770111  RH  037%=      5-min Rain = 0
KTIS 171835Z 16009KT 28/11 A3006 RMK A01 T02800107  RH  035%=      5-min Rain = 0
KTIS 171840Z 17007KT 28/10 A3006 RMK A01 T02770101  RH  034%=      5-min Rain = 0
KTIS 171845Z 21007KT 28/09 A3006 RMK A01 T02770092  RH  032%=      5-min Rain = 0
KTIS 171850Z 14005G10KT 28/09 A3006 RMK A01 T02760094  RH  033%=      5-min Rain = 0
KTIS 171855Z 12006G12KT 28/10 A3005 RMK A01 T02760097  RH  034%=      5-min Rain = 0
KTIS 171900Z 14007KT 28/09 A3005 RMK A01 T02790092  RH  032%=      5-min Rain = 0
KTIS 171905Z 15004KT 28/09 A3005 RMK A01 T02810085  RH  030%=      5-min Rain = 0
KTIS 171910Z 15008KT 28/09 A3005 RMK A01 T02840086  RH  030%=      5-min Rain = 0
KTIS 171915Z 19002G7KT 28/07 A3005 RMK A01 T02800074  RH  028%=      5-min Rain = 0
KTIS 171920Z 21005KT 28/08 A3004 RMK A01 T02830076  RH  028%=      5-min Rain = 0
KTIS 171925Z 17006G11KT 28/09 A3004 RMK A01 T02840087  RH  030%=      5-min Rain = 0
KTIS 171930Z 11004KT 29/09 A3004 RMK A01 T02870094  RH  031%=      5-min Rain = 0
KTIS 171935Z 12006G12KT 28/09 A3004 RMK A01 T02840087  RH  030%=      5-min Rain = 0
KTIS 171940Z 12010KT 29/09 A3003 RMK A01 T02890088  RH  029%=      5-min Rain = 0
KTIS 171945Z 15006G11KT 29/08 A3003 RMK A01 T02880077  RH  027%=      5-min Rain = 0
KTIS 171950Z 16008G13KT 29/08 A3003 RMK A01 T02900082  RH  028%=      5-min Rain = 0
KTIS 171955Z 17006G11KT 29/08 A3003 RMK A01 T02890077  RH  027%=      5-min Rain = 0
KTIS 172000Z 17008KT 29/08 A3003 RMK A01 T02930075  RH  026%=      5-min Rain = 0
KTIS 172005Z 24003G8KT 29/07 A3003 RMK A01 T02920074  RH  026%=      5-min Rain = 0
KTIS 172010Z 18006G11KT 30/08 A3003 RMK A01 T02950080  RH  027%=      5-min Rain = 0
KTIS 172015Z 17008KT 30/08 A3002 RMK A01 T02970082  RH  027%=      5-min Rain = 0
KTIS 172020Z 14008KT 30/07 A3002 RMK A01 T02990072  RH  025%=      5-min Rain = 0
KTIS 172025Z 18006G11KT 30/08 A3002 RMK A01 T02950078  RH  026%=      5-min Rain = 0
KTIS 172030Z 17008KT 30/08 A3002 RMK A01 T02970084  RH  027%=      5-min Rain = 0
KTIS 172035Z 16007KT 30/08 A3002 RMK A01 T02960083  RH  027%=      5-min Rain = 0
KTIS 172040Z 13007G13KT 30/09 A3002 RMK A01 T02980087  RH  027%=      5-min Rain = 0
KTIS 172045Z 13008KT 30/09 A3001 RMK A01 T02980088  RH  028%=      5-min Rain = 0
KTIS 172050Z 16005G10KT 29/08 A3001 RMK A01 T02930084  RH  028%=      5-min Rain = 0
KTIS 172055Z 12008G13KT 30/09 A3001 RMK A01 T02990093  RH  029%=      5-min Rain = 0
KTIS 172100Z 11009KT 30/09 A3001 RMK A01 T02990094  RH  029%=      5-min Rain = 0
KTIS 172105Z 13007G15KT 30/09 A3001 RMK A01 T02980091  RH  028%=      5-min Rain = 0
KTIS 172110Z 17011G16KT 30/09 A3001 RMK A01 T03000093  RH  028%=      5-min Rain = 0
KTIS 172115Z 15008G13KT 30/09 A3001 RMK A01 T02990091  RH  028%=      5-min Rain = 0
KTIS 172120Z 12004G9KT 30/09 A30 RMK A01 T02970090  RH  028%=      5-min Rain = 0
KTIS 172125Z 14009G14KT 30/09 A30 RMK A01 T03000087  RH  027%=      5-min Rain = 0
KTIS 172130Z 15005KT 30/09 A30 RMK A01 T03020092  RH  028%=      5-min Rain = 0
KTIS 172135Z 16008G15KT 31/09 A30 RMK A01 T03050090  RH  027%=      5-min Rain = 0
KTIS 172140Z 12008KT 30/09 A2999 RMK A01 T03010092  RH  028%=      5-min Rain = 0
KTIS 172145Z 13010KT 30/09 A2999 RMK A01 T02990093  RH  029%=      5-min Rain = 0
KTIS 172150Z 15009KT 29/09 A2999 RMK A01 T02940088  RH  028%=      5-min Rain = 0
KTIS 172155Z 14007G15KT 29/09 A2999 RMK A01 T02890089  RH  029%=      5-min Rain = 0
KTIS 172200Z 15009G14KT 29/09 A2999 RMK A01 T02890090  RH  030%=      5-min Rain = 0
KTIS 172205Z 14008G13KT 29/09 A2999 RMK A01 T02870090  RH  030%=      5-min Rain = 0
KTIS 172210Z 15008KT 29/09 A2999 RMK A01 T02870092  RH  031%=      5-min Rain = 0
KTIS 172215Z 15010KT 29/09 A2999 RMK A01 T02870088  RH  030%=      5-min Rain = 0
KTIS 172220Z 14008KT 29/09 A2998 RMK A01 T02860090  RH  030%=      5-min Rain = 0
KTIS 172225Z 14011KT 29/09 A2998 RMK A01 T02850088  RH  030%=      5-min Rain = 0
KTIS 172230Z 13009G15KT 29/09 A2998 RMK A01 T02850092  RH  031%=      5-min Rain = 0
KTIS 172235Z 13011KT 28/09 A2998 RMK A01 T02820090  RH  031%=      5-min Rain = 0
KTIS 172240Z 14010KT 28/09 A2998 RMK A01 T02830090  RH  031%=      5-min Rain = 0
KTIS 172245Z 13010KT 28/09 A2998 RMK A01 T02820092  RH  031%=      5-min Rain = 0
KTIS 172250Z 14010KT 28/09 A2997 RMK A01 T02800091  RH  031%=      5-min Rain = 0
KTIS 172255Z 13010KT 28/09 A2997 RMK A01 T02790092  RH  032%=      5-min Rain = 0
KTIS 172300Z 14013KT 28/09 A2998 RMK A01 T02790094  RH  032%=      5-min Rain = 0
KTIS 172305Z 14010KT 28/10 A2998 RMK A01 T02770095  RH  033%=      5-min Rain = 0
KTIS 172310Z 13011KT 28/09 A2998 RMK A01 T02750094  RH  033%=      5-min Rain = 0
KTIS 172315Z 12011KT 27/09 A2997 RMK A01 T02730093  RH  033%=      5-min Rain = 0
KTIS 172320Z 13009KT 27/10 A2997 RMK A01 T02710096  RH  034%=      5-min Rain = 0
KTIS 172325Z 13009KT 27/10 A2997 RMK A01 T02710095  RH  034%=      5-min Rain = 0
KTIS 172330Z 13009KT 27/10 A2996 RMK A01 T02700097  RH  035%=      5-min Rain = 0
KTIS 172335Z 12010KT 27/10 A2996 RMK A01 T02670098  RH  036%=      5-min Rain = 0
KTIS 172340Z 12009KT 27/10 A2996 RMK A01 T02650098  RH  036%=      5-min Rain = 0
KTIS 172345Z 12010KT 26/10 A2996 RMK A01 T02640099  RH  037%=      5-min Rain = 0
KTIS 172350Z 12010KT 26/10 A2995 RMK A01 T02640097  RH  036%=      5-min Rain = 0
KTIS 172355Z 12010KT 26/10 A2996 RMK A01 T02640098  RH  036%=      5-min Rain = 0
KTIS 180000Z 12008KT 26/10 A2996 RMK A01 T02630099  RH  037%=      5-min Rain = 0
KTIS 180005Z 13008KT 26/10 A2996 RMK A01 T02620100  RH  037%=      5-min Rain = 0
KTIS 180010Z 12008KT 26/10 A2996 RMK A01 T02610101  RH  038%=      5-min Rain = 0
KTIS 180015Z 12008KT 26/10 A2996 RMK A01 T02590103  RH  039%=      5-min Rain = 0
KTIS 180020Z 13008KT 26/10 A2996 RMK A01 T02590101  RH  038%=      5-min Rain = 0
KTIS 180025Z 12007KT 26/10 A2996 RMK A01 T02580103  RH  039%=      5-min Rain = 0
KTIS 180030Z 12009KT 26/10 A2995 RMK A01 T02560104  RH  040%=      5-min Rain = 0
KTIS 180035Z 13011KT 26/10 A2995 RMK A01 T02550103  RH  040%=      5-min Rain = 0
KTIS 180040Z 13012KT 26/10 A2994 RMK A01 T02550102  RH  039%=      5-min Rain = 0
KTIS 180045Z 13013KT 26/10 A2995 RMK A01 T02550102  RH  039%=      5-min Rain = 0
KTIS 180050Z 12013KT 25/10 A2994 RMK A01 T02540103  RH  040%=      5-min Rain = 0
KTIS 180055Z 12013KT 25/10 A2994 RMK A01 T02530104  RH  040%=      5-min Rain = 0
KTIS 180100Z 13012G17KT 25/10 A2994 RMK A01 T02520104  RH  041%=      5-min Rain = 0
KTIS 180105Z 13012KT 25/10 A2994 RMK A01 T02510103  RH  041%=      5-min Rain = 0
KTIS 180110Z 12012KT 25/10 A2995 RMK A01 T02500104  RH  041%=      5-min Rain = 0
KTIS 180115Z 12011KT 25/11 A2995 RMK A01 T02480105  RH  042%=      5-min Rain = 0
KTIS 180120Z 12009KT 25/11 A2995 RMK A01 T02460107  RH  043%=      5-min Rain = 0
KTIS 180125Z 12009KT 24/11 A2996 RMK A01 T02440107  RH  044%=      5-min Rain = 0
KTIS 180130Z 12009KT 24/11 A2996 RMK A01 T02440107  RH  044%=      5-min Rain = 0
KTIS 180135Z 13010KT 24/11 A2997 RMK A01 T02440108  RH  044%=      5-min Rain = 0
KTIS 180140Z 13010KT 24/11 A2997 RMK A01 T02430108  RH  044%=      5-min Rain = 0
KTIS 180145Z 13009KT 24/11 A2998 RMK A01 T02430108  RH  044%=      5-min Rain = 0
KTIS 180150Z 13009KT 24/11 A2998 RMK A01 T02420109  RH  045%=      5-min Rain = 0
KTIS 180155Z 14010KT 24/11 A2999 RMK A01 T02410109  RH  045%=      5-min Rain = 0
KTIS 180200Z 13009KT 24/11 A2999 RMK A01 T02410109  RH  045%=      5-min Rain = 0
KTIS 180205Z 13009KT 24/11 A2999 RMK A01 T02390110  RH  046%=      5-min Rain = 0
KTIS 180210Z 13009KT 24/11 A2999 RMK A01 T02380110  RH  046%=      5-min Rain = 0
KTIS 180215Z 14008KT 24/11 A30 RMK A01 T02370111  RH  047%=      5-min Rain = 0
KTIS 180220Z 15008KT 24/11 A30 RMK A01 T02370112  RH  047%=      5-min Rain = 0
KTIS 180225Z 14006KT 24/11 A30 RMK A01 T02360113  RH  048%=      5-min Rain = 0
KTIS 180230Z 16004KT 23/12 A30 RMK A01 T02340115  RH  049%=      5-min Rain = 0
KTIS 180235Z 14004KT 23/12 A30 RMK A01 T02330116  RH  050%=      5-min Rain = 0
KTIS 180240Z 25002G8KT 23/12 A30 RMK A01 T02340116  RH  049%=      5-min Rain = 0
KTIS 180245Z 23005KT 24/11 A3002 RMK A01 T02370114  RH  048%=      5-min Rain = 0
KTIS 180250Z 22005KT 24/11 A3002 RMK A01 T02390113  RH  047%=      5-min Rain = 0
KTIS 180255Z 26005KT 24/11 A3003 RMK A01 T02390114  RH  047%=      5-min Rain = 0
KTIS 180300Z 24007KT 24/11 A3004 RMK A01 T02410113  RH  046%=      5-min Rain = 0
KTIS 180305Z 26010KT 24/11 A3005 RMK A01 T02420114  RH  046%=      5-min Rain = 0
KTIS 180310Z 26008KT 24/12 A3006 RMK A01 T02400119  RH  048%=      5-min Rain = 0
KTIS 180315Z 28010KT 24/13 A3007 RMK A01 T02350126  RH  052%=      5-min Rain = 0
KTIS 180320Z 28010KT 22/14 A3008 RMK A01 T02240135  RH  060%=      5-min Rain = 0
KTIS 180325Z 28011KT 21/14 A3009 RMK A01 T02140138  RH  065%=      5-min Rain = 0
KTIS 180330Z 25008KT 21/13 A3009 RMK A01 T02130132  RH  063%=      5-min Rain = 0
KTIS 180335Z 23009KT 21/13 A301 RMK A01 T02100134  RH  065%=      5-min Rain = 0
KTIS 180340Z 28014G22KT 21/13 A3011 RMK A01 T02080128  RH  063%=      5-min Rain = 0.01
KTIS 180345Z 31019G25KT 19/13 A301 RMK A01 T01880132  RH  073%=      5-min Rain = 0
KTIS 180350Z 31017G24KT 18/14 A3011 RMK A01 T01780136  RH  080%=      5-min Rain = 0
KTIS 180355Z 30018G23KT 18/14 A3012 RMK A01 T01770137  RH  081%=      5-min Rain = 0
KTIS 180400Z 30015G20KT 18/14 A3013 RMK A01 T01780138  RH  081%=      5-min Rain = 0
KTIS 180405Z 30010G16KT 18/14 A3014 RMK A01 T01780140  RH  082%=      5-min Rain = 0.01
KTIS 180410Z 29005G10KT 18/14 A3015 RMK A01 T01770142  RH  083%=      5-min Rain = 0
KTIS 180415Z 28004KT 18/14 A3015 RMK A01 T01770143  RH  084%=      5-min Rain = 0
KTIS 180420Z 20006KT 18/14 A3015 RMK A01 T01790143  RH  083%=      5-min Rain = 0
KTIS 180425Z 17006KT 18/14 A3016 RMK A01 T01790142  RH  082%=      5-min Rain = 0
KTIS 180430Z 16003KT 18/14 A3016 RMK A01 T01790141  RH  082%=      5-min Rain = 0
KTIS 180435Z 15004KT 18/14 A3016 RMK A01 T01790141  RH  082%=      5-min Rain = 0
KTIS 180440Z 22005KT 18/14 A3017 RMK A01 T01790138  RH  080%=      5-min Rain = 0
KTIS 180445Z 26004KT 18/14 A3017 RMK A01 T01790141  RH  082%=      5-min Rain = 0.01
KTIS 180450Z 23004KT 18/14 A3017 RMK A01 T01750143  RH  085%=      5-min Rain = 0.02
KTIS 180455Z 20002KT 17/14 A3015 RMK A01 T01730143  RH  086%=      5-min Rain = 0.02

Page generated in 0.0214 seconds.